Time;durP1;ratioP1;P1;durP2;ratioP2;P2;SDS_P1;SDS_P2;PMS_P1;PMS_P2;Temp;Humidity;BMP_temperature;BMP_pressure;BME280_temperature;BME280_humidity;BME280_pressure;Samples;Min_cycle;Max_cycle;Signal;HPM_P1;HPM_P2
2023/03/04 00:01:45;;;;;;;44.17;24.63;;;3.00;96.60;;;;;;4898146;29;20847;-73
2023/03/04 00:04:10;;;;;;;57.03;30.60;;;3.00;96.60;;;;;;4874946;29;20424;-73
2023/03/04 00:06:36;;;;;;;65.33;31.10;;;3.00;96.60;;;;;;4895928;29;20226;-70
2023/03/04 00:09:03;;;;;;;57.10;31.90;;;3.00;96.70;;;;;;4893617;29;20191;-72
2023/03/04 00:11:30;;;;;;;61.47;32.13;;;3.00;96.70;;;;;;4895326;29;20191;-73
2023/03/04 00:13:56;;;;;;;51.20;25.87;;;3.10;96.60;;;;;;4903625;29;20682;-71
2023/03/04 00:16:22;;;;;;;56.43;29.40;;;3.10;96.70;;;;;;4875429;29;20552;-71
2023/03/04 00:18:47;;;;;;;60.33;30.80;;;3.10;96.80;;;;;;4870875;29;20517;-71
2023/03/04 00:21:13;;;;;;;63.57;33.57;;;3.10;96.80;;;;;;4883237;29;20439;-72
2023/03/04 00:23:40;;;;;;;58.17;29.20;;;3.10;96.80;;;;;;4891155;29;20188;-70
2023/03/04 00:26:08;;;;;;;49.80;27.00;;;3.00;96.80;;;;;;4910137;29;20203;-75
2023/03/04 00:28:34;;;;;;;54.57;27.67;;;3.10;96.90;;;;;;4875315;29;20905;-72
2023/03/04 00:30:59;;;;;;;58.47;27.93;;;3.10;97.00;;;;;;4876202;29;20464;-75
2023/03/04 00:33:25;;;;;;;65.97;32.40;;;3.10;97.10;;;;;;4895594;29;20199;-75
2023/03/04 00:35:51;;;;;;;60.90;31.87;;;3.10;97.30;;;;;;4886185;29;20554;-71
2023/03/04 00:38:17;;;;;;;61.60;28.30;;;3.10;97.50;;;;;;4886182;29;20183;-70
2023/03/04 00:40:42;;;;;;;51.83;28.27;;;3.10;97.60;;;;;;4888457;29;20589;-70
2023/03/04 00:43:08;;;;;;;45.33;23.00;;;3.10;97.70;;;;;;4878207;29;20204;-74
2023/03/04 00:45:33;;;;;;;38.00;21.63;;;3.10;97.70;;;;;;4868225;29;20223;-71
2023/03/04 00:47:59;;;;;;;42.33;21.20;;;3.10;97.70;;;;;;4896366;29;20267;-71
2023/03/04 00:50:25;;;;;;;40.90;21.60;;;3.10;97.70;;;;;;4911243;29;20179;-71
2023/03/04 00:52:50;;;;;;;42.73;22.13;;;3.10;97.70;;;;;;4895453;29;20196;-72
2023/03/04 00:55:16;;;;;;;39.47;19.90;;;3.10;97.70;;;;;;4892233;29;20211;-72
2023/03/04 00:57:42;;;;;;;48.90;23.90;;;3.10;97.90;;;;;;4875847;29;20216;-72
2023/03/04 01:00:08;;;;;;;45.73;22.67;;;3.20;98.00;;;;;;4907141;29;20223;-72
2023/03/04 01:02:34;;;;;;;45.17;21.53;;;3.20;98.10;;;;;;4912044;29;20184;-72
2023/03/04 01:04:59;;;;;;;47.40;22.13;;;3.10;98.20;;;;;;4911214;29;20472;-72
2023/03/04 01:07:25;;;;;;;41.20;19.70;;;3.10;98.20;;;;;;4890180;29;20243;-73
2023/03/04 01:09:50;;;;;;;34.93;18.23;;;3.20;98.30;;;;;;4891074;29;20588;-71
2023/03/04 01:12:16;;;;;;;35.80;20.67;;;3.20;98.60;;;;;;4877684;29;20221;-70
2023/03/04 01:14:42;;;;;;;30.93;18.77;;;3.20;98.40;;;;;;4900595;29;20453;-71
2023/03/04 01:17:08;;;;;;;24.10;14.33;;;3.20;98.40;;;;;;4891479;29;20219;-72
2023/03/04 01:19:33;;;;;;;29.33;14.83;;;3.10;98.30;;;;;;4905029;29;20231;-72
2023/03/04 01:21:59;;;;;;;24.27;12.10;;;3.20;98.20;;;;;;4892521;29;20198;-72
2023/03/04 01:24:25;;;;;;;18.43;10.60;;;3.20;98.10;;;;;;4921554;29;20479;-72
2023/03/04 01:26:50;;;;;;;27.50;14.63;;;3.20;98.00;;;;;;4903099;29;20200;-70
2023/03/04 01:29:16;;;;;;;23.50;12.50;;;3.30;98.00;;;;;;4883596;29;20591;-70
2023/03/04 01:31:41;;;;;;;21.60;12.67;;;3.30;97.80;;;;;;4867456;29;20219;-72
2023/03/04 01:34:08;;;;;;;22.90;12.50;;;3.30;97.70;;;;;;4917562;29;20204;-71
2023/03/04 01:36:35;;;;;;;24.73;13.60;;;3.30;97.60;;;;;;4873847;29;20507;-75
2023/03/04 01:39:00;;;;;;;17.77;11.87;;;3.30;97.30;;;;;;4870709;29;20747;-71
2023/03/04 01:41:27;;;;;;;20.53;13.23;;;3.40;97.20;;;;;;4864103;29;20195;-73
2023/03/04 01:43:55;;;;;;;18.43;10.20;;;3.40;97.00;;;;;;4867529;29;20198;-72
2023/03/04 01:46:23;;;;;;;19.90;9.80;;;3.40;96.80;;;;;;4871786;29;20522;-72
2023/03/04 01:48:50;;;;;;;22.30;10.17;;;3.40;96.80;;;;;;4866191;29;20428;-70
2023/03/04 01:51:18;;;;;;;14.57;8.77;;;3.40;96.60;;;;;;4853284;29;20434;-71
2023/03/04 01:53:46;;;;;;;20.07;9.23;;;3.40;96.50;;;;;;4866798;29;20193;-72
2023/03/04 01:56:21;;;;;;;13.93;8.07;;;3.50;96.50;;;;;;4878048;29;20461;-71
2023/03/04 01:59:13;;;;;;;14.13;8.43;;;3.40;96.40;;;;;;4854113;29;20467;-70
2023/03/04 02:01:40;;;;;;;16.77;8.83;;;3.50;96.40;;;;;;4872964;29;20402;-72
2023/03/04 02:04:07;;;;;;;22.23;11.30;;;3.50;96.20;;;;;;4856132;29;20429;-71
2023/03/04 02:06:38;;;;;;;16.80;9.53;;;3.50;96.00;;;;;;4886264;29;20477;-73
2023/03/04 02:09:04;;;;;;;18.07;9.07;;;3.50;95.80;;;;;;4873195;29;20522;-72
2023/03/04 02:11:30;;;;;;;16.17;9.53;;;3.50;95.70;;;;;;4874610;29;20857;-72
2023/03/04 02:13:57;;;;;;;14.60;7.63;;;3.50;95.60;;;;;;4881877;29;20437;-73
2023/03/04 02:16:22;;;;;;;16.03;7.93;;;3.60;95.50;;;;;;4873463;29;20453;-70
2023/03/04 02:18:48;;;;;;;15.20;8.70;;;3.60;95.40;;;;;;4871139;29;20517;-69
2023/03/04 02:21:33;;;;;;;15.63;8.20;;;3.60;95.30;;;;;;4855167;29;20572;-71
2023/03/04 02:24:28;;;;;;;18.33;8.40;;;3.60;95.30;;;;;;4855220;29;20213;-70
2023/03/04 02:26:53;;;;;;;18.90;9.97;;;3.60;95.20;;;;;;4887076;29;20437;-70
2023/03/04 02:29:19;;;;;;;16.53;7.80;;;3.60;95.10;;;;;;4844563;29;20432;-71
2023/03/04 02:31:51;;;;;;;18.97;7.50;;;3.60;95.10;;;;;;4834034;29;20197;-73
2023/03/04 02:34:27;;;;;;;21.57;9.43;;;3.60;95.00;;;;;;4838717;29;20579;-70
2023/03/04 02:36:54;;;;;;;18.00;9.30;;;3.60;95.00;;;;;;4869657;29;20429;-72
2023/03/04 02:39:19;;;;;;;18.60;8.17;;;3.60;94.90;;;;;;4867821;29;20454;-71
2023/03/04 02:41:51;;;;;;;15.33;7.50;;;3.70;94.70;;;;;;4854520;29;20883;-72
2023/03/04 02:44:24;;;;;;;12.30;7.13;;;3.70;94.70;;;;;;4851246;29;20212;-73
2023/03/04 02:46:51;;;;;;;13.27;7.30;;;3.70;94.60;;;;;;4868662;29;20440;-70
2023/03/04 02:49:18;;;;;;;11.50;6.93;;;3.70;94.70;;;;;;4870236;29;20445;-73
2023/03/04 02:51:44;;;;;;;11.93;5.77;;;3.70;94.60;;;;;;4852758;29;20865;-73
2023/03/04 02:54:21;;;;;;;12.30;7.37;;;3.70;94.50;;;;;;4866367;29;20486;-74
2023/03/04 02:56:49;;;;;;;18.30;7.87;;;3.70;94.50;;;;;;4840324;29;20831;-73
2023/03/04 02:59:15;;;;;;;13.40;6.70;;;3.80;94.40;;;;;;4870446;29;20449;-72
2023/03/04 03:01:41;;;;;;;14.83;6.40;;;3.80;94.30;;;;;;4867511;29;20413;-71
2023/03/04 03:04:07;;;;;;;16.43;6.70;;;3.80;94.20;;;;;;4852663;29;20208;-71
2023/03/04 03:06:33;;;;;;;19.63;7.67;;;3.80;94.20;;;;;;4866987;29;20517;-71
2023/03/04 03:08:59;;;;;;;12.40;6.30;;;3.80;93.90;;;;;;4851110;29;20477;-72
2023/03/04 03:11:25;;;;;;;15.90;6.37;;;3.80;94.00;;;;;;4850857;29;20189;-71
2023/03/04 03:13:51;;;;;;;16.30;7.40;;;3.80;94.00;;;;;;4846158;29;20596;-69
2023/03/04 03:16:17;;;;;;;12.80;5.30;;;3.90;94.10;;;;;;4862634;29;20500;-71
2023/03/04 03:18:42;;;;;;;21.20;7.70;;;3.80;94.00;;;;;;4857659;29;20576;-71
2023/03/04 03:21:08;;;;;;;21.70;7.80;;;3.80;94.00;;;;;;4864706;29;20197;-72
2023/03/04 03:23:34;;;;;;;12.07;6.07;;;3.80;94.10;;;;;;4860880;29;20188;-70
2023/03/04 03:26:00;;;;;;;17.60;7.00;;;3.80;94.00;;;;;;4863521;29;20603;-71
2023/03/04 03:28:27;;;;;;;7.90;4.50;;;3.80;94.00;;;;;;4847438;29;20603;-71
2023/03/04 03:30:52;;;;;;;16.83;6.87;;;3.80;94.10;;;;;;4877858;29;20421;-71
2023/03/04 03:33:18;;;;;;;15.10;6.07;;;3.80;94.10;;;;;;4862542;29;20455;-69
2023/03/04 03:35:44;;;;;;;13.60;5.30;;;3.80;94.10;;;;;;4869822;29;20224;-69
2023/03/04 03:38:10;;;;;;;15.70;5.93;;;3.80;94.10;;;;;;4855383;29;20920;-72
2023/03/04 03:40:36;;;;;;;15.50;7.90;;;3.80;94.10;;;;;;4882064;29;20496;-70
2023/03/04 03:43:01;;;;;;;12.73;5.07;;;3.80;94.10;;;;;;4864409;29;20283;-69
2023/03/04 03:45:27;;;;;;;17.83;4.90;;;3.80;94.10;;;;;;4880084;29;20224;-70
2023/03/04 03:47:53;;;;;;;10.97;4.90;;;3.90;94.20;;;;;;4881496;29;20203;-70
2023/03/04 03:50:18;;;;;;;11.20;5.60;;;3.90;94.20;;;;;;4879408;29;20696;-70
2023/03/04 03:52:44;;;;;;;11.27;5.70;;;3.90;94.30;;;;;;4862977;29;20185;-70
2023/03/04 03:55:09;;;;;;;9.13;5.03;;;3.90;94.30;;;;;;4874104;29;20608;-71
2023/03/04 03:57:35;;;;;;;13.50;7.50;;;3.90;94.20;;;;;;4877459;29;20187;-70
2023/03/04 04:00:01;;;;;;;15.80;6.07;;;3.90;94.20;;;;;;4864255;29;20670;-69
2023/03/04 04:02:26;;;;;;;13.53;5.73;;;3.90;94.20;;;;;;4880383;29;20211;-69
2023/03/04 04:04:52;;;;;;;14.33;6.10;;;3.90;94.20;;;;;;4882018;29;20796;-71
2023/03/04 04:07:18;;;;;;;13.73;5.30;;;3.90;94.20;;;;;;4881263;29;20192;-71
2023/03/04 04:09:43;;;;;;;12.03;5.93;;;3.90;94.10;;;;;;4872221;29;20204;-70
2023/03/04 04:12:12;;;;;;;16.13;5.53;;;3.90;94.20;;;;;;4866086;29;20256;-70
2023/03/04 04:14:38;;;;;;;15.20;5.10;;;3.90;94.20;;;;;;4874984;29;20254;-70
2023/03/04 04:17:03;;;;;;;11.87;5.23;;;3.90;94.30;;;;;;4868779;29;20488;-69
2023/03/04 04:19:29;;;;;;;9.70;4.30;;;3.90;94.30;;;;;;4866822;29;20224;-69
2023/03/04 04:21:54;;;;;;;11.50;4.80;;;3.90;94.40;;;;;;4866674;29;20201;-70
2023/03/04 04:24:20;;;;;;;12.60;5.50;;;3.90;94.40;;;;;;4866439;29;20204;-70
2023/03/04 04:26:45;;;;;;;13.83;4.93;;;3.90;94.40;;;;;;4866925;29;20275;-71
2023/03/04 04:29:12;;;;;;;17.47;5.53;;;3.90;94.40;;;;;;4863226;29;20299;-71
2023/03/04 04:31:38;;;;;;;20.33;6.27;;;3.90;94.40;;;;;;4866710;29;20181;-70
2023/03/04 04:34:04;;;;;;;13.73;6.70;;;3.90;94.40;;;;;;4866784;29;20856;-70
2023/03/04 04:36:29;;;;;;;13.10;5.27;;;4.00;94.40;;;;;;4864889;29;20598;-69
2023/03/04 04:38:56;;;;;;;10.50;4.60;;;4.00;94.40;;;;;;4866482;29;20258;-70
2023/03/04 04:41:28;;;;;;;16.43;6.33;;;3.90;94.40;;;;;;4866750;29;20189;-70
2023/03/04 04:43:54;;;;;;;6.67;4.03;;;4.00;94.60;;;;;;4865253;29;20500;-69
2023/03/04 04:46:20;;;;;;;13.63;4.40;;;3.90;94.50;;;;;;4866337;29;20536;-70
2023/03/04 04:48:46;;;;;;;11.30;4.97;;;4.00;94.60;;;;;;4866134;29;20205;-71
2023/03/04 04:51:11;;;;;;;8.70;4.40;;;4.00;94.60;;;;;;4866438;29;20817;-70
2023/03/04 04:53:37;;;;;;;24.80;9.70;;;4.00;94.60;;;;;;4866740;29;20409;-70
2023/03/04 04:56:15;;;;;;;32.30;9.60;;;4.00;94.40;;;;;;4868115;29;20290;-71
2023/03/04 04:58:42;;;;;;;19.37;7.80;;;4.00;94.10;;;;;;4878615;29;20476;-71
2023/03/04 05:01:07;;;;;;;16.53;6.60;;;4.10;93.80;;;;;;4876909;29;20809;-70
2023/03/04 05:03:35;;;;;;;33.10;15.77;;;4.10;93.90;;;;;;4865733;29;20473;-70
2023/03/04 05:06:00;;;;;;;30.03;14.30;;;4.10;93.70;;;;;;4865677;29;20208;-69
2023/03/04 05:08:26;;;;;;;27.80;15.00;;;4.20;93.40;;;;;;4849387;29;20883;-70
2023/03/04 05:10:52;;;;;;;33.50;15.30;;;4.20;93.30;;;;;;4866704;29;20196;-69
2023/03/04 05:13:18;;;;;;;31.73;15.77;;;4.20;93.40;;;;;;4873943;29;20275;-69
2023/03/04 05:15:44;;;;;;;38.50;17.60;;;4.20;93.30;;;;;;4888108;29;20514;-70
2023/03/04 05:18:10;;;;;;;41.87;19.40;;;4.20;92.90;;;;;;4872657;29;20332;-70
2023/03/04 05:20:36;;;;;;;33.43;15.83;;;4.30;92.70;;;;;;4869694;29;20503;-69
2023/03/04 05:23:01;;;;;;;33.07;15.63;;;4.30;92.70;;;;;;4865796;29;20207;-71
2023/03/04 05:25:27;;;;;;;24.33;13.33;;;4.30;92.80;;;;;;4865981;29;20597;-70
2023/03/04 05:27:53;;;;;;;28.23;13.27;;;4.30;92.80;;;;;;4867366;29;20588;-70
2023/03/04 05:30:18;;;;;;;20.03;11.30;;;4.30;92.90;;;;;;4867419;29;20224;-70
2023/03/04 05:32:44;;;;;;;23.67;12.43;;;4.30;92.90;;;;;;4866339;29;20547;-70
2023/03/04 05:35:09;;;;;;;18.87;10.63;;;4.20;93.00;;;;;;4871007;29;20291;-71
2023/03/04 05:37:35;;;;;;;18.77;9.57;;;4.20;93.00;;;;;;4885333;29;20277;-69
2023/03/04 05:40:00;;;;;;;18.43;9.60;;;4.20;93.10;;;;;;4883932;29;20215;-70
2023/03/04 05:42:26;;;;;;;18.10;8.30;;;4.20;93.20;;;;;;4880917;29;20228;-71
2023/03/04 05:44:51;;;;;;;20.30;9.40;;;4.20;93.20;;;;;;4890734;29;20223;-71
2023/03/04 05:47:17;;;;;;;12.37;5.90;;;4.20;93.20;;;;;;4903644;29;20203;-70
2023/03/04 05:49:43;;;;;;;15.97;7.80;;;4.20;93.20;;;;;;4894867;29;20489;-69
2023/03/04 05:52:09;;;;;;;17.50;6.70;;;4.20;93.30;;;;;;4884415;29;20188;-72
2023/03/04 05:54:35;;;;;;;11.03;6.10;;;4.20;93.30;;;;;;4901021;29;20731;-70
2023/03/04 05:57:01;;;;;;;17.60;7.10;;;4.20;93.30;;;;;;4892860;29;20421;-71
2023/03/04 05:59:27;;;;;;;13.30;6.60;;;4.20;93.20;;;;;;4890282;29;20223;-71
2023/03/04 06:01:52;;;;;;;14.90;5.90;;;4.30;93.20;;;;;;4888494;29;20397;-71
2023/03/04 06:04:18;;;;;;;12.10;5.73;;;4.30;93.10;;;;;;4892464;29;20479;-71
2023/03/04 06:06:46;;;;;;;18.17;7.23;;;4.30;93.10;;;;;;4906958;29;20442;-71
2023/03/04 06:09:12;;;;;;;20.67;6.50;;;4.30;93.10;;;;;;4898995;29;20189;-70
2023/03/04 06:11:39;;;;;;;16.37;5.43;;;4.30;93.00;;;;;;4887944;29;20433;-72
2023/03/04 06:14:05;;;;;;;12.03;6.30;;;4.40;92.90;;;;;;4855024;29;20444;-71
2023/03/04 06:16:31;;;;;;;18.20;5.70;;;4.40;92.50;;;;;;4892679;29;20473;-70
2023/03/04 06:18:57;;;;;;;11.67;5.20;;;4.40;92.60;;;;;;4879702;29;20223;-71
2023/03/04 06:21:22;;;;;;;15.30;4.93;;;4.40;92.70;;;;;;4895840;29;20416;-70
2023/03/04 06:23:48;;;;;;;12.47;4.50;;;4.50;92.70;;;;;;4906828;29;20262;-70
2023/03/04 06:26:16;;;;;;;10.70;4.50;;;4.50;92.70;;;;;;4905641;29;20211;-71
2023/03/04 06:28:42;;;;;;;14.50;4.20;;;4.50;92.60;;;;;;4886940;29;20534;-69
2023/03/04 06:31:08;;;;;;;12.67;4.80;;;4.50;93.10;;;;;;4894091;29;20715;-70
2023/03/04 06:33:33;;;;;;;9.47;3.73;;;4.50;92.70;;;;;;4886116;29;20508;-70
2023/03/04 06:35:59;;;;;;;8.13;4.20;;;4.50;92.80;;;;;;4887574;29;20319;-70
2023/03/04 06:38:25;;;;;;;7.63;3.00;;;4.50;92.70;;;;;;4880290;29;20200;-69
2023/03/04 06:40:51;;;;;;;8.53;2.60;;;4.60;92.80;;;;;;4890118;29;20595;-70
2023/03/04 06:43:17;;;;;;;22.47;5.33;;;4.50;92.80;;;;;;4888441;29;20428;-71
2023/03/04 06:45:43;;;;;;;6.00;2.43;;;4.50;93.00;;;;;;4875217;29;20468;-70
2023/03/04 06:48:09;;;;;;;13.33;4.33;;;4.60;93.00;;;;;;4864914;29;20412;-70
2023/03/04 06:50:35;;;;;;;12.90;5.13;;;4.60;92.80;;;;;;4871217;29;20420;-70
2023/03/04 06:53:01;;;;;;;11.80;5.13;;;4.60;92.70;;;;;;4887495;29;20910;-72
2023/03/04 06:55:26;;;;;;;10.33;4.40;;;4.60;92.60;;;;;;4887131;29;20216;-70
2023/03/04 06:57:52;;;;;;;10.33;4.17;;;4.60;92.60;;;;;;4872041;29;20256;-72
2023/03/04 07:00:18;;;;;;;7.90;3.90;;;4.60;92.60;;;;;;4892354;29;20527;-71
2023/03/04 07:02:44;;;;;;;5.60;3.40;;;4.60;92.70;;;;;;4875701;29;20199;-71
2023/03/04 07:05:10;;;;;;;14.67;3.60;;;4.60;92.80;;;;;;4874760;29;20885;-71
2023/03/04 07:07:36;;;;;;;6.63;3.53;;;4.60;92.80;;;;;;4868526;29;20231;-71
2023/03/04 07:10:03;;;;;;;10.03;3.30;;;4.60;92.80;;;;;;4872025;29;20432;-72
2023/03/04 07:12:28;;;;;;;10.90;3.57;;;4.60;92.80;;;;;;4883501;29;20458;-72
2023/03/04 07:14:54;;;;;;;13.23;3.30;;;4.70;92.90;;;;;;4871948;29;20461;-72
2023/03/04 07:17:19;;;;;;;6.80;2.47;;;4.70;93.00;;;;;;4872419;29;20240;-70
2023/03/04 07:19:45;;;;;;;11.60;2.93;;;4.70;92.90;;;;;;4885586;29;20215;-70
2023/03/04 07:22:11;;;;;;;6.43;2.87;;;4.70;93.00;;;;;;4887845;29;20187;-71
2023/03/04 07:24:36;;;;;;;11.37;3.17;;;4.70;93.00;;;;;;4887642;29;20203;-71
2023/03/04 07:27:02;;;;;;;12.10;3.50;;;4.70;92.80;;;;;;4887335;29;20176;-71
2023/03/04 07:29:27;;;;;;;8.30;2.80;;;4.80;92.70;;;;;;4869484;29;20204;-72
2023/03/04 07:31:54;;;;;;;9.47;3.50;;;4.80;92.40;;;;;;4887482;29;20188;-72
2023/03/04 07:34:19;;;;;;;10.10;3.23;;;4.80;92.70;;;;;;4885526;29;20196;-70
2023/03/04 07:36:45;;;;;;;10.63;3.50;;;4.80;92.80;;;;;;4880301;29;20484;-72
2023/03/04 07:39:12;;;;;;;8.23;3.03;;;4.80;93.10;;;;;;4885968;29;20215;-72
2023/03/04 07:41:38;;;;;;;7.50;3.30;;;4.80;92.50;;;;;;4887497;29;20184;-70
2023/03/04 07:44:05;;;;;;;6.47;3.00;;;4.80;92.50;;;;;;4875469;29;20426;-71
2023/03/04 07:46:31;;;;;;;6.70;2.80;;;4.80;92.60;;;;;;4878435;29;20637;-73
2023/03/04 07:48:57;;;;;;;11.53;3.13;;;4.90;92.50;;;;;;4892243;29;20456;-71
2023/03/04 07:51:24;;;;;;;10.67;3.60;;;4.80;92.30;;;;;;4892973;29;20492;-73
2023/03/04 07:53:53;;;;;;;9.23;3.00;;;4.90;92.10;;;;;;4875655;29;20187;-71
2023/03/04 07:56:22;;;;;;;12.63;3.43;;;4.90;92.10;;;;;;4893022;29;20452;-71
2023/03/04 07:58:47;;;;;;;9.80;4.40;;;5.00;91.40;;;;;;4884289;29;20465;-72
2023/03/04 08:01:20;;;;;;;6.20;3.97;;;5.00;91.10;;;;;;4857053;29;20718;-73
2023/03/04 08:03:46;;;;;;;5.70;3.23;;;5.10;91.10;;;;;;4896425;29;20207;-71
2023/03/04 08:06:14;;;;;;;9.60;3.40;;;5.10;90.90;;;;;;4891590;29;20572;-71
2023/03/04 08:08:41;;;;;;;3.60;2.53;;;5.20;90.60;;;;;;4875662;29;20554;-72
2023/03/04 08:11:17;;;;;;;9.47;2.90;;;5.20;90.70;;;;;;4896626;29;20419;-75
2023/03/04 08:13:43;;;;;;;11.83;3.30;;;5.20;90.90;;;;;;4887374;29;20443;-73
2023/03/04 08:16:12;;;;;;;9.00;3.20;;;5.20;90.90;;;;;;4874213;29;20464;-71
2023/03/04 08:18:39;;;;;;;8.73;2.97;;;5.10;90.90;;;;;;4888956;29;20417;-74
2023/03/04 08:21:08;;;;;;;5.40;2.20;;;5.10;90.90;;;;;;4892646;29;20436;-72
2023/03/04 08:23:35;;;;;;;8.80;2.97;;;5.10;91.00;;;;;;4875726;29;20422;-70
2023/03/04 08:26:09;;;;;;;4.67;2.47;;;5.20;91.20;;;;;;4874417;29;20590;-72
2023/03/04 08:28:35;;;;;;;12.93;3.30;;;5.20;91.20;;;;;;4886066;29;20436;-73
2023/03/04 08:31:02;;;;;;;10.23;3.80;;;5.20;91.30;;;;;;4891225;29;20592;-73
2023/03/04 08:33:28;;;;;;;6.57;2.57;;;5.20;91.20;;;;;;4888358;29;20433;-76
2023/03/04 08:35:53;;;;;;;9.40;2.83;;;5.30;91.20;;;;;;4895562;29;20471;-75
2023/03/04 08:38:19;;;;;;;8.43;3.53;;;5.40;91.20;;;;;;4892208;29;20257;-73
2023/03/04 08:40:45;;;;;;;12.27;2.87;;;5.40;90.80;;;;;;4890777;29;20215;-76
2023/03/04 08:43:10;;;;;;;6.37;2.90;;;5.40;90.90;;;;;;4876914;29;20436;-73
2023/03/04 08:45:36;;;;;;;15.40;3.53;;;5.40;90.90;;;;;;4859228;29;20235;-72
2023/03/04 08:48:01;;;;;;;4.50;2.03;;;5.50;91.00;;;;;;4860204;29;20164;-75
2023/03/04 08:50:27;;;;;;;8.43;2.77;;;5.40;91.00;;;;;;4872839;29;20194;-76
2023/03/04 08:52:53;;;;;;;4.53;2.13;;;5.40;91.30;;;;;;4877017;29;20525;-72
2023/03/04 08:55:19;;;;;;;8.70;3.60;;;5.50;90.90;;;;;;4877965;29;20446;-75
2023/03/04 08:57:45;;;;;;;8.17;3.47;;;5.50;91.10;;;;;;4876494;29;20196;-74
2023/03/04 09:00:11;;;;;;;8.27;1.90;;;5.50;91.20;;;;;;4883558;29;20249;-71
2023/03/04 09:02:37;;;;;;;6.23;2.40;;;5.60;91.30;;;;;;4852643;29;20180;-72
2023/03/04 09:05:03;;;;;;;17.93;5.10;;;5.70;91.50;;;;;;4867418;29;20445;-73
2023/03/04 09:07:29;;;;;;;9.70;2.80;;;5.90;91.40;;;;;;4881770;29;20212;-72
2023/03/04 09:09:55;;;;;;;8.77;2.87;;;6.10;90.70;;;;;;4895640;29;20428;-71
2023/03/04 09:12:20;;;;;;;10.63;3.53;;;6.30;90.00;;;;;;4897496;29;20195;-73
2023/03/04 09:14:46;;;;;;;3.93;2.63;;;6.40;88.80;;;;;;4882262;29;20473;-72
2023/03/04 09:17:12;;;;;;;10.20;3.70;;;6.50;88.80;;;;;;4847307;29;20204;-72
2023/03/04 09:19:37;;;;;;;7.33;3.27;;;6.50;88.90;;;;;;4868474;29;20230;-75
2023/03/04 09:22:03;;;;;;;9.90;3.70;;;6.60;88.50;;;;;;4882186;29;20187;-73
2023/03/04 09:24:30;;;;;;;7.27;3.37;;;6.60;88.40;;;;;;4865845;29;20682;-75
2023/03/04 09:26:55;;;;;;;7.73;3.20;;;6.70;89.10;;;;;;4882040;29;20200;-76
2023/03/04 09:29:21;;;;;;;16.20;4.67;;;6.80;88.50;;;;;;4864466;29;20445;-73
2023/03/04 09:31:49;;;;;;;10.77;4.70;;;7.00;86.40;;;;;;4879300;29;20180;-75
2023/03/04 09:34:14;;;;;;;7.00;2.67;;;7.10;85.80;;;;;;4895271;29;20439;-72
2023/03/04 09:36:40;;;;;;;6.20;2.67;;;7.20;86.50;;;;;;4891474;29;20472;-73
2023/03/04 09:39:06;;;;;;;4.10;2.10;;;7.40;84.40;;;;;;4867366;29;20611;-75
2023/03/04 09:42:03;;;;;;;6.50;2.00;;;7.50;84.00;;;;;;4876877;29;20200;-73
2023/03/04 09:44:35;;;;;;;8.77;2.40;;;7.50;83.00;;;;;;4854770;29;20450;-74
2023/03/04 09:47:14;;;;;;;8.70;2.47;;;7.40;83.20;;;;;;4864798;29;20423;-72
2023/03/04 09:49:43;;;;;;;10.67;2.90;;;7.30;83.90;;;;;;4867471;29;20502;-75
2023/03/04 09:52:35;;;;;;;4.10;2.30;;;7.30;83.40;;;;;;4878390;29;20429;-73
2023/03/04 09:55:27;;;;;;;10.50;2.90;;;7.20;83.60;;;;;;4879609;29;20453;-77
2023/03/04 09:58:00;;;;;;;4.10;1.90;;;7.20;84.70;;;;;;4875044;29;20435;-73
2023/03/04 10:00:41;;;;;;;4.10;2.10;;;7.10;84.90;;;;;;4863997;29;20461;-75
2023/03/04 10:03:23;;;;;;;8.83;2.40;;;7.10;85.00;;;;;;4881421;29;20456;-74
2023/03/04 10:06:02;;;;;;;4.27;2.50;;;7.10;83.10;;;;;;4880436;29;20456;-76
2023/03/04 10:08:45;;;;;;;8.03;2.57;;;7.00;83.50;;;;;;4897448;29;20420;-76
2023/03/04 10:11:22;;;;;;;5.00;1.97;;;6.90;83.80;;;;;;4890864;29;20396;-74
2023/03/04 10:14:26;;;;;;;5.20;2.40;;;6.90;83.70;;;;;;4896773;29;20444;-74
2023/03/04 10:16:55;;;;;;;4.40;2.17;;;6.80;84.30;;;;;;4897296;29;20440;-75
2023/03/04 10:19:24;;;;;;;7.73;3.03;;;7.00;84.50;;;;;;4895962;29;20447;-77
2023/03/04 10:21:52;;;;;;;8.10;2.67;;;7.00;83.00;;;;;;4897541;29;20484;-77
2023/03/04 10:24:21;;;;;;;3.80;2.10;;;7.10;82.80;;;;;;4899788;29;20500;-76
2023/03/04 10:27:04;;;;;;;5.73;2.30;;;7.20;82.70;;;;;;4897820;29;20443;-76
2023/03/04 10:29:31;;;;;;;6.40;3.17;;;7.30;82.20;;;;;;4880753;29;20428;-75
2023/03/04 10:31:57;;;;;;;10.23;2.67;;;7.20;81.80;;;;;;4880101;29;20504;-74
2023/03/04 10:34:23;;;;;;;4.87;1.87;;;7.10;83.10;;;;;;4896636;29;20428;-75
2023/03/04 10:36:58;;;;;;;6.97;2.30;;;7.10;85.00;;;;;;4915617;29;20415;-74
2023/03/04 10:39:33;;;;;;;8.00;2.70;;;7.00;87.10;;;;;;4899969;29;20465;-75
2023/03/04 10:42:22;;;;;;;7.63;2.10;;;7.10;88.40;;;;;;4892789;29;20416;-74
2023/03/04 10:44:57;;;;;;;3.47;2.20;;;7.30;86.50;;;;;;4891207;29;20471;-76
2023/03/04 10:47:25;;;;;;;6.77;2.20;;;7.40;86.70;;;;;;4897161;29;20432;-77
2023/03/04 10:49:54;;;;;;;3.80;2.23;;;7.50;86.20;;;;;;4879418;29;20443;-74
2023/03/04 10:52:34;;;;;;;5.70;2.47;;;7.60;84.60;;;;;;4878807;29;20428;-72
2023/03/04 10:55:05;;;;;;;7.17;2.10;;;7.80;86.30;;;;;;4896779;29;20544;-76
2023/03/04 10:57:40;;;;;;;6.17;2.57;;;7.90;85.80;;;;;;4897647;29;20519;-75
2023/03/04 11:00:26;;;;;;;7.73;2.50;;;7.90;84.80;;;;;;4880097;29;20943;-76
2023/03/04 11:03:12;;;;;;;4.10;1.63;;;7.80;85.10;;;;;;4879496;29;20880;-72
2023/03/04 11:05:38;;;;;;;4.30;2.07;;;7.80;84.60;;;;;;4882169;29;20439;-76
2023/03/04 11:08:03;;;;;;;8.10;3.23;;;7.70;83.40;;;;;;4897286;29;20417;-76
2023/03/04 11:10:35;;;;;;;8.40;2.70;;;7.60;85.60;;;;;;4895035;29;20196;-75
2023/03/04 11:13:11;;;;;;;9.27;2.90;;;7.60;86.50;;;;;;4895496;29;20188;-75
2023/03/04 11:16:22;;;;;;;6.60;3.03;;;7.60;87.30;;;;;;4883420;29;20451;-74
2023/03/04 11:18:52;;;;;;;7.73;2.73;;;7.90;86.40;;;;;;4894207;29;20502;-75
2023/03/04 11:21:24;;;;;;;4.90;2.90;;;8.00;85.90;;;;;;4916559;29;20423;-74
2023/03/04 11:23:57;;;;;;;7.43;2.83;;;8.20;83.10;;;;;;4902057;29;20503;-74
2023/03/04 11:26:29;;;;;;;5.20;2.73;;;8.20;82.40;;;;;;4903207;29;20427;-76
2023/03/04 11:29:07;;;;;;;7.70;2.37;;;8.30;80.60;;;;;;4913305;29;20452;-75
2023/03/04 11:31:53;;;;;;;4.23;2.47;;;8.30;81.20;;;;;;4887907;29;20418;-76
2023/03/04 11:34:43;;;;;;;5.20;2.93;;;8.40;81.10;;;;;;4883276;29;20417;-73
2023/03/04 11:37:14;;;;;;;8.33;3.63;;;8.30;79.20;;;;;;4908812;29;20423;-76
2023/03/04 11:39:50;;;;;;;10.23;3.57;;;8.20;80.20;;;;;;4902790;29;20487;-75
2023/03/04 11:42:37;;;;;;;4.93;2.60;;;8.10;81.30;;;;;;4917296;29;20404;-72
2023/03/04 11:45:10;;;;;;;4.80;2.10;;;8.10;80.70;;;;;;4881124;29;20488;-76
2023/03/04 11:47:47;;;;;;;8.63;2.63;;;8.20;82.10;;;;;;4898733;29;20508;-76
2023/03/04 11:50:46;;;;;;;3.20;1.70;;;8.10;79.90;;;;;;4899084;29;20440;-74
2023/03/04 11:53:30;;;;;;;5.70;1.80;;;8.10;80.40;;;;;;4894717;29;20475;-73
2023/03/04 11:56:10;;;;;;;5.13;2.80;;;7.90;80.10;;;;;;4900310;29;20481;-76
2023/03/04 11:58:41;;;;;;;7.63;2.00;;;7.80;80.40;;;;;;4897757;29;20439;-76
2023/03/04 12:01:24;;;;;;;5.73;2.77;;;7.80;81.50;;;;;;4897980;29;20415;-75
2023/03/04 12:04:05;;;;;;;5.23;2.70;;;7.80;82.10;;;;;;4899846;29;20433;-75
2023/03/04 12:07:08;;;;;;;9.70;3.93;;;7.70;82.30;;;;;;4895013;29;20448;-72
2023/03/04 12:09:52;;;;;;;4.40;2.50;;;7.70;83.60;;;;;;4896677;29;20415;-75
2023/03/04 12:12:42;;;;;;;7.30;3.47;;;7.60;83.60;;;;;;4922840;29;20431;-76
2023/03/04 12:15:23;;;;;;;12.30;3.87;;;7.60;84.20;;;;;;4900016;29;20498;-73
2023/03/04 12:18:15;;;;;;;2.50;1.60;;;7.60;84.10;;;;;;4911084;29;20495;-76
2023/03/04 12:21:07;;;;;;;4.10;2.10;;;7.70;83.70;;;;;;4861797;29;20465;-76
2023/03/04 12:23:54;;;;;;;3.43;1.77;;;7.70;82.70;;;;;;4859600;29;20418;-76
2023/03/04 12:26:36;;;;;;;5.47;1.97;;;8.00;82.40;;;;;;4861426;29;20441;-76
2023/03/04 12:29:06;;;;;;;5.20;2.03;;;8.30;80.30;;;;;;4846348;29;20421;-76
2023/03/04 12:31:55;;;;;;;12.50;2.93;;;8.60;77.90;;;;;;4876370;29;20450;-74
2023/03/04 12:34:32;;;;;;;3.53;2.47;;;8.80;75.20;;;;;;4833130;29;20402;-76
2023/03/04 12:37:38;;;;;;;4.80;2.80;;;8.70;73.70;;;;;;4843585;29;20430;-76
2023/03/04 12:40:16;;;;;;;5.53;2.10;;;8.60;72.80;;;;;;4851939;29;20489;-74
2023/03/04 12:43:00;;;;;;;4.07;2.40;;;8.50;74.90;;;;;;4846890;29;20463;-75
2023/03/04 12:45:45;;;;;;;8.30;2.83;;;8.50;76.50;;;;;;4830069;29;20547;-76
2023/03/04 12:48:23;;;;;;;4.67;1.90;;;8.50;74.90;;;;;;4863122;29;20438;-74
2023/03/04 12:51:13;;;;;;;6.67;3.47;;;8.40;74.80;;;;;;4847169;29;20421;-74
2023/03/04 12:53:50;;;;;;;6.97;1.77;;;8.40;75.40;;;;;;4864621;29;20408;-75
2023/03/04 12:56:41;;;;;;;3.23;1.50;;;8.40;75.80;;;;;;4848863;29;20461;-75
2023/03/04 12:59:16;;;;;;;3.00;1.67;;;8.40;76.40;;;;;;4848906;29;20551;-74
2023/03/04 13:01:52;;;;;;;2.23;1.50;;;8.60;75.50;;;;;;4854600;29;20448;-75